Time;durP1;ratioP1;P1;durP2;ratioP2;P2;SDS_P1;SDS_P2;PMS_P1;PMS_P2;Temp;Humidity;BMP_temperature;BMP_pressure;BME280_temperature;BME280_humidity;BME280_pressure;Samples;Min_cycle;Max_cycle;Signal;HPM_P1;HPM_P2
2023/03/20 00:01:13;;;;;;;6.68;5.25;;;21.70;41.40;;;;;;5044550;28;20120;-51
2023/03/20 00:03:40;;;;;;;6.43;5.15;;;21.70;41.40;;;;;;5046555;28;20468;-54
2023/03/20 00:06:18;;;;;;;6.28;4.85;;;21.70;41.30;;;;;;5048732;28;20092;-51
2023/03/20 00:08:45;;;;;;;6.82;4.70;;;21.70;41.30;;;;;;5044714;28;20479;-51
2023/03/20 00:11:25;;;;;;;5.68;4.50;;;21.70;41.30;;;;;;5044356;28;20039;-53
2023/03/20 00:13:53;;;;;;;6.85;4.78;;;21.70;41.30;;;;;;5049194;28;20051;-56
2023/03/20 00:16:30;;;;;;;5.00;4.18;;;21.70;41.30;;;;;;5048818;28;20041;-50
2023/03/20 00:18:57;;;;;;;6.97;4.53;;;21.70;41.30;;;;;;5047320;28;20029;-54
2023/03/20 00:21:23;;;;;;;6.40;4.70;;;21.70;41.40;;;;;;5049040;28;20021;-48
2023/03/20 00:23:49;;;;;;;5.13;4.00;;;21.70;41.30;;;;;;5052998;28;20043;-55
2023/03/20 00:26:17;;;;;;;4.97;3.95;;;21.70;41.30;;;;;;5050234;28;20448;-52
2023/03/20 00:28:46;;;;;;;5.00;3.95;;;21.70;41.30;;;;;;5051706;28;20032;-52
2023/03/20 00:31:34;;;;;;;6.32;4.05;;;21.70;41.20;;;;;;5065184;28;20040;-56
2023/03/20 00:34:04;;;;;;;5.55;3.97;;;21.70;41.10;;;;;;5052286;28;20083;-52
2023/03/20 00:36:30;;;;;;;4.88;3.75;;;21.70;41.10;;;;;;5051369;28;20087;-52
2023/03/20 00:38:58;;;;;;;4.28;3.22;;;21.70;41.10;;;;;;5049724;28;20029;-54
2023/03/20 00:41:25;;;;;;;5.55;3.40;;;21.70;41.10;;;;;;5048644;28;20483;-56
2023/03/20 00:44:05;;;;;;;4.90;3.80;;;21.70;41.10;;;;;;5050899;28;20079;-52
2023/03/20 00:46:35;;;;;;;5.30;3.55;;;21.70;41.00;;;;;;5051467;28;20044;-54
2023/03/20 00:49:02;;;;;;;4.03;3.35;;;21.70;41.00;;;;;;5049897;28;20032;-50
2023/03/20 00:51:28;;;;;;;5.18;3.75;;;21.70;40.90;;;;;;5050144;28;20407;-53
2023/03/20 00:53:55;;;;;;;4.63;3.78;;;21.70;40.90;;;;;;5041880;28;20026;-53
2023/03/20 00:56:39;;;;;;;4.93;3.40;;;21.70;40.90;;;;;;5040817;28;20466;-53
2023/03/20 00:59:08;;;;;;;4.30;3.38;;;21.70;40.80;;;;;;5053024;28;20083;-54
2023/03/20 01:01:34;;;;;;;4.40;3.25;;;21.60;40.70;;;;;;5049420;28;20021;-55
2023/03/20 01:04:00;;;;;;;5.28;3.20;;;21.60;40.70;;;;;;5052176;28;20515;-54
2023/03/20 01:06:28;;;;;;;4.20;3.47;;;21.70;40.70;;;;;;5049704;28;20464;-53
2023/03/20 01:08:56;;;;;;;4.28;3.05;;;21.60;40.60;;;;;;5051109;28;20089;-55
2023/03/20 01:11:24;;;;;;;3.90;2.97;;;21.60;40.60;;;;;;5048011;28;21664;-55
2023/03/20 01:13:51;;;;;;;4.18;3.38;;;21.60;40.60;;;;;;5051873;28;20043;-54
2023/03/20 01:16:21;;;;;;;4.43;3.60;;;21.60;40.50;;;;;;5050367;28;20079;-56
2023/03/20 01:18:47;;;;;;;5.78;3.53;;;21.60;40.60;;;;;;5047517;28;20036;-50
2023/03/20 01:21:13;;;;;;;4.65;3.00;;;21.60;40.50;;;;;;5048142;28;20043;-56
2023/03/20 01:23:39;;;;;;;4.35;3.40;;;21.60;40.50;;;;;;5049665;28;20021;-53
2023/03/20 01:26:30;;;;;;;5.00;3.30;;;21.60;40.50;;;;;;5050545;28;20037;-53
2023/03/20 01:28:56;;;;;;;4.53;3.28;;;21.60;40.40;;;;;;5051329;28;20036;-55
2023/03/20 01:31:23;;;;;;;3.92;3.15;;;21.60;40.50;;;;;;5049681;28;20028;-52
2023/03/20 01:33:49;;;;;;;5.18;3.58;;;21.60;40.40;;;;;;5050832;28;20028;-53
2023/03/20 01:36:19;;;;;;;4.28;3.63;;;21.60;40.40;;;;;;5046134;28;20352;-53
2023/03/20 01:38:51;;;;;;;4.57;3.13;;;21.60;40.50;;;;;;5050552;28;20025;-52
2023/03/20 01:41:22;;;;;;;4.03;3.05;;;21.60;40.40;;;;;;5048903;28;20025;-55
2023/03/20 01:43:48;;;;;;;4.30;2.78;;;21.60;40.40;;;;;;5049470;28;20021;-53
2023/03/20 01:46:22;;;;;;;4.93;3.10;;;21.60;40.40;;;;;;5048375;28;20031;-56
2023/03/20 01:48:49;;;;;;;4.15;2.97;;;21.60;40.40;;;;;;5045110;28;20349;-52
2023/03/20 01:51:24;;;;;;;3.78;2.55;;;21.60;40.40;;;;;;5049947;28;20068;-53
2023/03/20 01:53:57;;;;;;;3.75;2.88;;;21.60;40.30;;;;;;5050334;28;20029;-54
2023/03/20 01:56:24;;;;;;;4.88;3.08;;;21.60;40.30;;;;;;5046970;28;20405;-53
2023/03/20 01:58:59;;;;;;;4.53;2.85;;;21.60;40.30;;;;;;5045268;28;20056;-51
2023/03/20 02:01:26;;;;;;;4.40;2.70;;;21.60;40.30;;;;;;5047689;28;20169;-55
2023/03/20 02:03:54;;;;;;;3.65;2.53;;;21.50;40.20;;;;;;5047926;28;20025;-53
2023/03/20 02:06:41;;;;;;;3.53;2.40;;;21.60;40.20;;;;;;5047501;28;20025;-54
2023/03/20 02:09:16;;;;;;;3.78;2.60;;;21.60;40.20;;;;;;5047192;28;20028;-53
2023/03/20 02:11:46;;;;;;;4.35;2.35;;;21.60;40.20;;;;;;5049461;28;20025;-54
2023/03/20 02:14:13;;;;;;;3.35;2.15;;;21.60;40.20;;;;;;5049061;28;20044;-55
2023/03/20 02:17:00;;;;;;;3.45;2.28;;;21.50;40.10;;;;;;5049798;28;20049;-55
2023/03/20 02:20:09;;;;;;;3.30;2.40;;;21.50;40.10;;;;;;5033398;28;22492;-51
2023/03/20 02:22:44;;;;;;;4.20;2.30;;;21.50;40.00;;;;;;5048611;28;20461;-53
2023/03/20 02:25:38;;;;;;;3.75;2.10;;;21.50;40.00;;;;;;5047446;28;20345;-53
2023/03/20 02:28:11;;;;;;;4.35;2.25;;;21.50;40.00;;;;;;5047832;28;20071;-56
2023/03/20 02:31:04;;;;;;;4.05;2.33;;;21.50;40.10;;;;;;5043571;28;20358;-53
2023/03/20 02:33:50;;;;;;;4.40;2.50;;;21.50;40.10;;;;;;5048068;28;20033;-53
2023/03/20 02:36:18;;;;;;;4.45;2.15;;;21.50;40.10;;;;;;5047654;28;20045;-55
2023/03/20 02:39:03;;;;;;;3.17;1.98;;;21.50;40.00;;;;;;5050004;28;20024;-52
2023/03/20 02:41:42;;;;;;;3.92;2.08;;;21.50;40.00;;;;;;5047864;28;20082;-55
2023/03/20 02:44:26;;;;;;;2.95;1.83;;;21.50;40.00;;;;;;5032096;28;20021;-52
2023/03/20 02:47:30;;;;;;;2.83;1.70;;;21.50;39.90;;;;;;5047139;28;20665;-56
2023/03/20 02:50:29;;;;;;;3.67;1.73;;;21.50;39.80;;;;;;5044736;28;20033;-51
2023/03/20 02:53:08;;;;;;;2.22;1.60;;;21.50;39.70;;;;;;5048123;28;20118;-52
2023/03/20 02:55:38;;;;;;;3.50;1.70;;;21.50;39.60;;;;;;5043808;28;20033;-56
2023/03/20 02:58:46;;;;;;;3.65;1.60;;;21.50;39.50;;;;;;5045605;28;20053;-54
2023/03/20 03:01:29;;;;;;;3.83;1.58;;;21.50;39.30;;;;;;5045588;28;20482;-57
2023/03/20 03:04:01;;;;;;;2.88;1.50;;;21.40;39.20;;;;;;5047169;28;20040;-53
2023/03/20 03:06:33;;;;;;;2.10;1.20;;;21.50;39.20;;;;;;5030960;28;20025;-52
2023/03/20 03:09:08;;;;;;;2.72;1.35;;;21.50;39.00;;;;;;5044514;28;20040;-55
2023/03/20 03:11:49;;;;;;;2.17;1.10;;;21.50;39.00;;;;;;5047935;28;20395;-52
2023/03/20 03:14:36;;;;;;;2.65;1.40;;;21.50;38.90;;;;;;5046502;28;20037;-56
2023/03/20 03:17:07;;;;;;;1.90;1.30;;;21.50;38.80;;;;;;5043429;28;20067;-56
2023/03/20 03:19:36;;;;;;;1.60;1.00;;;21.50;38.80;;;;;;5047517;28;20033;-54
2023/03/20 03:22:03;;;;;;;2.60;1.02;;;21.50;38.70;;;;;;5045830;28;20033;-54
2023/03/20 03:24:37;;;;;;;2.15;1.20;;;21.50;38.70;;;;;;5046704;28;20499;-52
2023/03/20 03:27:12;;;;;;;2.38;1.25;;;21.40;38.60;;;;;;5047604;28;20091;-54
2023/03/20 03:29:41;;;;;;;1.90;1.27;;;21.50;38.60;;;;;;5045869;28;20071;-57
2023/03/20 03:32:26;;;;;;;2.28;1.42;;;21.40;38.50;;;;;;5046610;28;20033;-52
2023/03/20 03:34:53;;;;;;;2.03;1.23;;;21.40;38.50;;;;;;5048640;28;20045;-56
2023/03/20 03:37:27;;;;;;;2.42;1.30;;;21.50;38.50;;;;;;5042809;28;20338;-53
2023/03/20 03:40:14;;;;;;;;;;;21.40;38.50;;;;;;5046949;28;20039;-52
2023/03/20 03:42:56;;;;;;;2.22;1.40;;;21.40;38.50;;;;;;5072552;28;20259;-54
2023/03/20 03:45:30;;;;;;;3.65;1.40;;;21.40;38.50;;;;;;5048335;28;20062;-54
2023/03/20 03:48:10;;;;;;;3.45;1.33;;;21.40;38.50;;;;;;5049292;28;20053;-57
2023/03/20 03:50:53;;;;;;;2.28;1.50;;;21.40;38.50;;;;;;5078132;28;20116;-55
2023/03/20 03:53:24;;;;;;;2.00;1.27;;;21.40;38.50;;;;;;5052089;28;20040;-55
2023/03/20 03:55:55;;;;;;;1.90;1.10;;;21.40;38.50;;;;;;5049539;28;20033;-55
2023/03/20 03:58:43;;;;;;;3.35;1.50;;;21.40;38.50;;;;;;5049995;28;20108;-53
2023/03/20 04:01:12;;;;;;;1.60;1.00;;;21.40;38.50;;;;;;5051974;28;20044;-51
2023/03/20 04:03:45;;;;;;;2.20;1.30;;;21.40;38.50;;;;;;5043169;28;20050;-55
2023/03/20 04:06:12;;;;;;;2.47;1.10;;;21.40;38.50;;;;;;5042614;28;20039;-52
2023/03/20 04:08:42;;;;;;;2.03;1.33;;;21.40;38.50;;;;;;5047143;28;20025;-53
2023/03/20 04:11:21;;;;;;;2.10;1.23;;;21.40;38.40;;;;;;5051127;28;20040;-57
2023/03/20 04:13:49;;;;;;;2.75;1.42;;;21.40;38.50;;;;;;5048196;28;20059;-52
2023/03/20 04:16:16;;;;;;;2.45;1.38;;;21.40;38.40;;;;;;5050206;28;20376;-56
2023/03/20 04:18:45;;;;;;;2.10;1.30;;;21.40;38.40;;;;;;5047773;28;20444;-55
2023/03/20 04:21:14;;;;;;;2.85;1.42;;;21.40;38.40;;;;;;5047743;28;20047;-54
2023/03/20 04:23:41;;;;;;;2.47;1.40;;;21.30;38.30;;;;;;5049503;28;20435;-53
2023/03/20 04:26:07;;;;;;;3.03;1.40;;;21.40;38.90;;;;;;5052439;28;20075;-53
2023/03/20 04:28:34;;;;;;;2.38;1.40;;;21.40;38.30;;;;;;5051574;28;20038;-53
2023/03/20 04:31:23;;;;;;;3.15;1.60;;;21.30;38.20;;;;;;5046804;28;20048;-54
2023/03/20 04:34:06;;;;;;;2.88;1.50;;;21.30;38.20;;;;;;5047366;28;20514;-51
2023/03/20 04:36:47;;;;;;;3.95;1.85;;;21.30;38.20;;;;;;5051769;28;20068;-51
2023/03/20 04:39:15;;;;;;;3.30;1.83;;;21.30;38.20;;;;;;5048973;28;20404;-53
2023/03/20 04:41:41;;;;;;;4.35;2.22;;;21.30;38.20;;;;;;5051581;28;20039;-57
2023/03/20 04:44:08;;;;;;;3.30;1.98;;;21.30;38.20;;;;;;5048843;28;20478;-53
2023/03/20 04:46:34;;;;;;;3.65;1.90;;;21.30;38.20;;;;;;5078108;28;20432;-48
2023/03/20 04:49:04;;;;;;;4.57;2.30;;;21.30;38.30;;;;;;5050207;28;20025;-53
2023/03/20 04:51:31;;;;;;;4.35;2.40;;;21.30;38.30;;;;;;5051587;28;20032;-53
2023/03/20 04:53:57;;;;;;;3.60;2.28;;;21.30;38.30;;;;;;5052034;28;20033;-55
2023/03/20 04:56:23;;;;;;;4.95;2.40;;;21.30;38.30;;;;;;5050747;28;20025;-54
2023/03/20 04:58:50;;;;;;;3.92;2.40;;;21.30;38.30;;;;;;5051710;28;20021;-51
2023/03/20 05:01:18;;;;;;;3.50;2.10;;;21.30;38.30;;;;;;5050048;28;20048;-53
2023/03/20 05:03:45;;;;;;;4.30;2.38;;;21.30;38.20;;;;;;5046619;28;20499;-60
2023/03/20 05:06:11;;;;;;;3.63;2.10;;;21.30;38.20;;;;;;5044098;28;20021;-55
2023/03/20 05:08:40;;;;;;;3.92;2.25;;;21.30;38.20;;;;;;5046866;28;20021;-52
2023/03/20 05:11:07;;;;;;;3.10;2.17;;;21.30;38.20;;;;;;5049118;28;20045;-54
2023/03/20 05:13:51;;;;;;;5.07;2.33;;;21.30;38.10;;;;;;5052557;28;20514;-55
2023/03/20 05:16:38;;;;;;;5.15;2.25;;;21.30;38.10;;;;;;5050016;28;20452;-53
2023/03/20 05:19:31;;;;;;;3.83;2.28;;;21.30;38.10;;;;;;5037930;28;20033;-56
2023/03/20 05:21:57;;;;;;;2.83;2.08;;;21.30;38.10;;;;;;5048598;28;20345;-52
2023/03/20 05:24:39;;;;;;;3.92;2.25;;;21.20;38.00;;;;;;5077949;28;20037;-52
2023/03/20 05:27:45;;;;;;;4.50;2.50;;;21.30;38.00;;;;;;5045428;28;20183;-55
2023/03/20 05:30:29;;;;;;;4.45;2.20;;;21.20;37.90;;;;;;5025611;28;20033;-54
2023/03/20 05:33:13;;;;;;;3.13;1.95;;;21.20;37.90;;;;;;5042691;28;20036;-55
2023/03/20 05:36:06;;;;;;;3.33;1.90;;;21.20;37.90;;;;;;5036736;28;20079;-53
2023/03/20 05:38:52;;;;;;;2.80;2.33;;;21.20;37.80;;;;;;5049958;28;20360;-56
2023/03/20 05:41:39;;;;;;;3.10;1.80;;;21.20;37.80;;;;;;5042301;28;20450;-55
2023/03/20 05:44:10;;;;;;;3.55;1.98;;;21.20;37.80;;;;;;5049074;28;20056;-51
2023/03/20 05:46:42;;;;;;;4.38;2.00;;;21.20;37.80;;;;;;5048328;28;20094;-54
2023/03/20 05:49:27;;;;;;;3.38;1.98;;;21.20;37.80;;;;;;5049768;28;20507;-53
2023/03/20 05:52:15;;;;;;;3.38;2.20;;;21.20;37.70;;;;;;5045778;28;20027;-52
2023/03/20 05:55:01;;;;;;;3.20;1.58;;;21.20;37.70;;;;;;5048572;28;20037;-52
2023/03/20 05:57:39;;;;;;;2.33;1.70;;;21.20;37.70;;;;;;5049572;28;20364;-53
2023/03/20 06:00:25;;;;;;;3.33;1.55;;;21.20;37.70;;;;;;5033944;28;20073;-53
2023/03/20 06:03:11;;;;;;;4.13;1.65;;;21.20;37.80;;;;;;5051163;28;20041;-56
2023/03/20 06:05:53;;;;;;;3.15;1.75;;;21.20;37.70;;;;;;5048182;28;20044;-53
2023/03/20 06:08:20;;;;;;;3.10;1.38;;;21.20;37.70;;;;;;5051642;28;20017;-53
2023/03/20 06:10:45;;;;;;;2.97;1.60;;;21.20;37.70;;;;;;5048602;28;20024;-55
2023/03/20 06:13:11;;;;;;;3.95;1.90;;;21.20;37.60;;;;;;5049128;28;20036;-51
2023/03/20 06:15:38;;;;;;;4.22;1.85;;;21.20;37.60;;;;;;5048144;28;21714;-51
2023/03/20 06:18:11;;;;;;;3.10;1.77;;;21.20;37.50;;;;;;5048293;28;20033;-52
2023/03/20 06:20:37;;;;;;;4.13;1.70;;;21.20;37.50;;;;;;5047517;28;20566;-54
2023/03/20 06:23:04;;;;;;;3.13;1.42;;;21.20;37.50;;;;;;5049266;28;20461;-54
2023/03/20 06:25:30;;;;;;;4.35;1.95;;;21.20;37.60;;;;;;5049077;28;20032;-53
2023/03/20 06:27:56;;;;;;;2.97;1.60;;;21.20;37.40;;;;;;5033397;28;20039;-53
2023/03/20 06:30:22;;;;;;;2.95;1.73;;;21.20;37.40;;;;;;5046742;28;20017;-54
2023/03/20 06:32:49;;;;;;;3.25;1.70;;;21.20;37.30;;;;;;5048357;28;20127;-56
2023/03/20 06:35:17;;;;;;;3.00;1.60;;;21.20;37.30;;;;;;5049543;28;20032;-55
2023/03/20 06:37:45;;;;;;;2.85;1.70;;;21.20;37.30;;;;;;5048144;28;20051;-52
2023/03/20 06:40:16;;;;;;;2.67;1.88;;;21.20;37.30;;;;;;5047185;28;20574;-51
2023/03/20 06:42:42;;;;;;;4.18;1.92;;;21.20;37.30;;;;;;5047264;28;20037;-51
2023/03/20 06:45:10;;;;;;;3.10;1.80;;;21.20;37.20;;;;;;5049206;28;20032;-55
2023/03/20 06:47:49;;;;;;;2.97;1.65;;;21.20;37.20;;;;;;5046577;28;20032;-54
2023/03/20 06:50:16;;;;;;;3.65;1.98;;;21.20;37.20;;;;;;5046367;28;20025;-55
2023/03/20 06:52:43;;;;;;;2.80;1.98;;;21.20;37.20;;;;;;5075204;28;20025;-54
2023/03/20 06:55:38;;;;;;;2.85;2.05;;;21.20;37.20;;;;;;5046167;28;20059;-56
2023/03/20 06:58:04;;;;;;;3.42;2.00;;;21.20;37.30;;;;;;5049195;28;20033;-54
2023/03/20 07:00:31;;;;;;;2.92;1.88;;;21.20;37.30;;;;;;5042677;28;20040;-54
2023/03/20 07:03:03;;;;;;;4.47;1.77;;;21.20;37.30;;;;;;5047411;28;20020;-50
2023/03/20 07:05:29;;;;;;;3.45;1.70;;;21.20;37.40;;;;;;5047538;28;20035;-49
2023/03/20 07:07:57;;;;;;;4.90;1.63;;;21.20;37.40;;;;;;5048117;28;20024;-54
2023/03/20 07:10:23;;;;;;;3.88;1.85;;;21.20;37.40;;;;;;5044591;28;20455;-52
2023/03/20 07:12:51;;;;;;;2.97;1.70;;;21.20;37.90;;;;;;5047126;28;20029;-53
2023/03/20 07:15:18;;;;;;;2.63;1.50;;;21.20;37.30;;;;;;5048705;28;20106;-53
2023/03/20 07:17:44;;;;;;;3.50;1.90;;;21.20;37.30;;;;;;5048457;28;20186;-51
2023/03/20 07:20:11;;;;;;;2.78;1.85;;;21.20;37.90;;;;;;5046405;28;20036;-53
2023/03/20 07:22:38;;;;;;;3.22;2.13;;;21.20;37.20;;;;;;5058989;28;20467;-53
2023/03/20 07:25:15;;;;;;;3.70;1.80;;;21.20;37.20;;;;;;5036502;28;20026;-53
2023/03/20 07:27:45;;;;;;;3.50;1.73;;;21.20;37.80;;;;;;5039708;28;20133;-50
2023/03/20 07:30:12;;;;;;;4.30;1.83;;;21.20;37.20;;;;;;5040290;28;20025;-57
2023/03/20 07:32:38;;;;;;;3.88;2.10;;;21.20;37.20;;;;;;5035174;28;20021;-51
2023/03/20 07:35:05;;;;;;;3.25;1.92;;;21.20;37.20;;;;;;5070755;28;20034;-54
2023/03/20 07:37:31;;;;;;;2.78;1.90;;;21.20;37.20;;;;;;5040282;28;20025;-54
2023/03/20 07:40:00;;;;;;;3.50;1.88;;;21.20;37.20;;;;;;5040726;28;20372;-53
2023/03/20 07:42:31;;;;;;;3.92;2.13;;;21.20;37.30;;;;;;5044264;28;20036;-54
2023/03/20 07:45:12;;;;;;;4.65;2.22;;;21.20;37.40;;;;;;5043544;28;20108;-53
2023/03/20 07:47:39;;;;;;;4.05;2.40;;;21.20;37.50;;;;;;5041433;28;20067;-55
2023/03/20 07:50:06;;;;;;;4.25;2.25;;;21.20;37.50;;;;;;5043058;28;20056;-57
2023/03/20 07:52:32;;;;;;;4.35;2.45;;;21.20;37.50;;;;;;5042931;28;20076;-50
2023/03/20 07:54:58;;;;;;;4.97;2.10;;;21.20;37.50;;;;;;5044609;28;20469;-55
2023/03/20 07:57:24;;;;;;;4.18;2.50;;;21.20;37.50;;;;;;5043992;28;20052;-55
2023/03/20 07:59:50;;;;;;;4.35;2.35;;;21.30;37.50;;;;;;5041331;28;20095;-55
2023/03/20 08:02:16;;;;;;;4.72;2.30;;;21.30;37.50;;;;;;5044684;28;20029;-53
2023/03/20 08:04:43;;;;;;;3.83;2.17;;;21.30;37.40;;;;;;5042785;28;20060;-50
2023/03/20 08:07:10;;;;;;;4.53;2.47;;;21.30;37.40;;;;;;5042007;28;20112;-54
2023/03/20 08:09:36;;;;;;;3.50;2.53;;;21.40;37.40;;;;;;5044782;28;20471;-55
2023/03/20 08:12:03;;;;;;;4.18;2.30;;;21.40;37.30;;;;;;5042477;28;20053;-55
2023/03/20 08:14:29;;;;;;;5.97;3.35;;;21.40;37.20;;;;;;5040635;28;20448;-54
2023/03/20 08:16:55;;;;;;;4.05;2.88;;;21.40;37.20;;;;;;5044352;28;20044;-54
2023/03/20 08:19:20;;;;;;;4.78;2.60;;;21.40;37.10;;;;;;5041170;28;20072;-50
2023/03/20 08:21:47;;;;;;;4.80;2.42;;;21.40;37.10;;;;;;5042421;28;20033;-54
2023/03/20 08:24:13;;;;;;;4.43;2.88;;;21.50;37.10;;;;;;5051018;28;20104;-50
2023/03/20 08:26:39;;;;;;;4.38;2.45;;;21.40;37.00;;;;;;5051830;28;20017;-51
2023/03/20 08:29:05;;;;;;;4.88;2.78;;;21.50;37.00;;;;;;5043316;28;20033;-55
2023/03/20 08:31:31;;;;;;;4.85;2.53;;;21.50;37.00;;;;;;5042452;28;20025;-51
2023/03/20 08:33:56;;;;;;;4.00;2.58;;;21.50;36.90;;;;;;5052373;28;20208;-53
2023/03/20 08:36:23;;;;;;;4.28;2.80;;;21.60;36.90;;;;;;5045573;28;20037;-54
2023/03/20 08:38:49;;;;;;;4.90;2.92;;;21.50;36.80;;;;;;5045284;28;20072;-55
2023/03/20 08:41:16;;;;;;;5.88;3.10;;;21.60;36.80;;;;;;5047046;28;20128;-51
2023/03/20 08:43:42;;;;;;;4.88;3.28;;;21.60;36.80;;;;;;5049009;28;20435;-48
2023/03/20 08:46:08;;;;;;;5.40;3.17;;;21.60;36.70;;;;;;5042189;28;20036;-54
2023/03/20 08:48:35;;;;;;;5.15;3.28;;;21.60;36.70;;;;;;5051182;28;20399;-53
2023/03/20 08:51:01;;;;;;;4.57;3.35;;;21.60;36.60;;;;;;5045759;28;20040;-52
2023/03/20 08:53:27;;;;;;;6.32;3.45;;;21.70;36.60;;;;;;5046248;28;20025;-54
2023/03/20 08:55:53;;;;;;;5.65;3.72;;;21.70;36.60;;;;;;5049823;28;20137;-50
2023/03/20 08:58:20;;;;;;;6.05;3.40;;;21.70;36.60;;;;;;5045152;28;20032;-55
2023/03/20 09:00:46;;;;;;;5.05;3.40;;;21.70;36.60;;;;;;5039172;28;20028;-51
2023/03/20 09:03:13;;;;;;;6.40;3.95;;;21.70;36.50;;;;;;5044891;28;20044;-54
2023/03/20 09:05:40;;;;;;;6.65;3.70;;;21.70;36.40;;;;;;5044312;28;20114;-52
2023/03/20 09:08:06;;;;;;;5.53;3.47;;;21.80;36.50;;;;;;5050572;28;20029;-55
2023/03/20 09:10:34;;;;;;;6.43;3.65;;;21.80;36.40;;;;;;5051353;28;20052;-54
2023/03/20 09:13:00;;;;;;;5.93;4.20;;;21.80;36.40;;;;;;5053977;28;20044;-53
2023/03/20 09:15:33;;;;;;;6.95;4.30;;;21.80;36.40;;;;;;5054070;28;20416;-55
2023/03/20 09:18:00;;;;;;;9.35;4.18;;;21.80;36.30;;;;;;5054410;28;20044;-52
2023/03/20 09:20:26;;;;;;;6.65;4.35;;;21.80;36.30;;;;;;5054295;28;20360;-55
2023/03/20 09:22:52;;;;;;;5.95;3.80;;;21.80;36.20;;;;;;5054605;28;20061;-53
2023/03/20 09:25:17;;;;;;;6.40;4.53;;;21.80;36.30;;;;;;5050815;28;20035;-56
2023/03/20 09:27:44;;;;;;;6.50;3.90;;;21.80;36.30;;;;;;5044984;28;20060;-51
2023/03/20 09:30:11;;;;;;;7.70;4.38;;;21.80;36.30;;;;;;5050597;28;20040;-54
2023/03/20 09:32:37;;;;;;;5.50;3.63;;;21.90;36.40;;;;;;5055026;28;20036;-49
2023/03/20 09:35:04;;;;;;;6.75;4.28;;;21.90;36.40;;;;;;5054509;28;20052;-49
2023/03/20 09:37:30;;;;;;;6.35;4.22;;;21.90;36.30;;;;;;5054521;28;20063;-52
2023/03/20 09:39:55;;;;;;;6.85;4.55;;;21.90;36.20;;;;;;5054674;28;20024;-51
2023/03/20 09:42:50;;;;;;;5.78;4.28;;;21.90;36.20;;;;;;5054319;28;20040;-51
2023/03/20 09:45:40;;;;;;;5.95;4.30;;;21.90;36.70;;;;;;5054123;28;20029;-50
2023/03/20 09:48:06;;;;;;;5.93;4.38;;;22.00;36.00;;;;;;5052686;28;20032;-50
2023/03/20 09:50:51;;;;;;;5.95;4.13;;;22.00;36.00;;;;;;5053580;28;20116;-50
2023/03/20 09:53:29;;;;;;;6.10;4.60;;;22.00;35.90;;;;;;5053904;28;20025;-53
2023/03/20 09:55:55;;;;;;;7.70;4.60;;;22.00;35.80;;;;;;5053609;28;20086;-52
2023/03/20 09:58:34;;;;;;;7.93;4.85;;;22.00;35.70;;;;;;5054478;28;20051;-51
2023/03/20 10:01:03;;;;;;;7.93;4.82;;;22.00;35.70;;;;;;5053107;28;20484;-51
2023/03/20 10:03:54;;;;;;;6.60;4.68;;;22.00;35.60;;;;;;5055990;28;20174;-50
2023/03/20 10:06:20;;;;;;;7.15;4.43;;;22.00;35.60;;;;;;5053383;28;20036;-50
2023/03/20 10:08:46;;;;;;;6.63;5.10;;;22.00;35.60;;;;;;5052115;28;20033;-52
2023/03/20 10:11:29;;;;;;;6.95;4.60;;;22.00;35.60;;;;;;5051543;28;20032;-53
2023/03/20 10:14:07;;;;;;;6.17;4.47;;;22.00;35.60;;;;;;5053544;28;20028;-52
2023/03/20 10:16:54;;;;;;;6.82;4.72;;;22.00;35.60;;;;;;5053283;28;20048;-50
2023/03/20 10:19:38;;;;;;;6.80;4.75;;;22.10;35.70;;;;;;5051065;28;20033;-53
2023/03/20 10:22:34;;;;;;;5.97;4.18;;;22.10;35.60;;;;;;5052036;28;20060;-50
2023/03/20 10:25:15;;;;;;;7.00;4.78;;;22.10;35.60;;;;;;5044257;28;20047;-55
2023/03/20 10:28:03;;;;;;;6.75;5.10;;;22.10;35.70;;;;;;5039511;28;20049;-50
2023/03/20 10:31:11;;;;;;;7.60;5.18;;;22.10;35.70;;;;;;5052310;28;20021;-51
2023/03/20 10:33:59;;;;;;;7.40;5.63;;;22.10;35.70;;;;;;5038638;28;20036;-51
2023/03/20 10:37:00;;;;;;;8.13;5.40;;;22.10;35.70;;;;;;5052885;28;20471;-53
2023/03/20 10:39:55;;;;;;;6.75;4.90;;;22.20;35.80;;;;;;5015864;28;20117;-52
2023/03/20 10:42:37;;;;;;;8.07;5.47;;;22.10;35.80;;;;;;5024538;28;20038;-52
2023/03/20 10:45:20;;;;;;;7.40;5.25;;;22.20;35.80;;;;;;5050069;28;20021;-52
2023/03/20 10:47:50;;;;;;;7.55;5.72;;;22.20;35.90;;;;;;5051358;28;21751;-52
2023/03/20 10:50:26;;;;;;;5.85;4.70;;;22.20;35.90;;;;;;5051251;28;20021;-51
2023/03/20 10:52:55;;;;;;;7.05;5.05;;;22.20;35.80;;;;;;5052693;28;20453;-53
2023/03/20 10:55:28;;;;;;;8.48;6.18;;;22.20;35.80;;;;;;5051455;28;20046;-51
2023/03/20 10:58:21;;;;;;;7.82;5.85;;;22.20;35.80;;;;;;5053333;28;20102;-50
2023/03/20 11:00:47;;;;;;;8.93;6.30;;;22.20;35.80;;;;;;5051016;28;20025;-51
2023/03/20 11:03:25;;;;;;;6.78;5.70;;;22.20;35.80;;;;;;5051249;28;20434;-50
2023/03/20 11:06:04;;;;;;;7.85;6.03;;;22.30;35.80;;;;;;5051717;28;20423;-48
2023/03/20 11:08:35;;;;;;;7.40;5.35;;;22.20;35.70;;;;;;5050871;28;20029;-51
2023/03/20 11:11:03;;;;;;;8.45;5.65;;;22.30;35.70;;;;;;5053266;28;20037;-57
2023/03/20 11:13:33;;;;;;;7.25;5.88;;;22.30;35.70;;;;;;5052665;28;20025;-55
2023/03/20 11:16:22;;;;;;;7.65;5.55;;;22.30;35.60;;;;;;5052844;28;20049;-49
2023/03/20 11:18:51;;;;;;;7.55;6.10;;;22.30;35.60;;;;;;5058459;28;20024;-51
2023/03/20 11:21:21;;;;;;;8.93;6.45;;;22.30;35.60;;;;;;5054746;28;20436;-54
2023/03/20 11:23:47;;;;;;;9.57;6.72;;;22.30;35.60;;;;;;5053065;28;20036;-54
2023/03/20 11:26:19;;;;;;;9.38;7.20;;;22.30;35.60;;;;;;5075501;28;20016;-48
2023/03/20 11:28:57;;;;;;;7.88;6.93;;;22.30;35.60;;;;;;5052901;28;20033;-51
2023/03/20 11:31:34;;;;;;;9.02;7.80;;;22.30;35.50;;;;;;5075745;28;20491;-51
2023/03/20 11:34:00;;;;;;;9.50;7.00;;;22.30;35.50;;;;;;5049934;28;20444;-52
2023/03/20 11:36:36;;;;;;;10.48;7.60;;;22.30;35.50;;;;;;5053500;28;20037;-54
2023/03/20 11:39:09;;;;;;;8.60;6.80;;;22.30;35.50;;;;;;5054365;28;20445;-53
2023/03/20 11:41:43;;;;;;;8.38;6.60;;;22.30;35.50;;;;;;5053539;28;20356;-51
2023/03/20 11:44:31;;;;;;;8.55;6.75;;;22.30;35.50;;;;;;5054383;28;20104;-50
2023/03/20 11:47:02;;;;;;;8.93;7.28;;;22.30;35.50;;;;;;5063463;28;20352;-53
2023/03/20 11:49:29;;;;;;;9.15;7.68;;;22.30;35.50;;;;;;5074380;28;20040;-52
2023/03/20 11:52:13;;;;;;;9.35;7.22;;;22.40;35.60;;;;;;5059090;28;20056;-50
2023/03/20 11:54:47;;;;;;;8.63;7.40;;;22.30;35.50;;;;;;5052005;28;20036;-55
2023/03/20 11:57:33;;;;;;;8.80;7.40;;;22.30;35.50;;;;;;5050280;28;20044;-53
2023/03/20 12:00:06;;;;;;;10.25;8.27;;;22.30;35.50;;;;;;5051830;28;20048;-51
2023/03/20 12:02:34;;;;;;;9.00;8.02;;;22.30;35.50;;;;;;5052738;28;20048;-51
2023/03/20 12:05:00;;;;;;;10.35;8.80;;;22.30;35.50;;;;;;5049893;28;20029;-53
2023/03/20 12:07:32;;;;;;;10.90;8.68;;;22.40;35.60;;;;;;5047023;28;20026;-52
2023/03/20 12:10:12;;;;;;;11.52;8.82;;;22.30;35.50;;;;;;5042093;28;20095;-54
2023/03/20 12:13:00;;;;;;;12.38;9.43;;;22.30;35.50;;;;;;5052641;28;20033;-52
2023/03/20 12:15:28;;;;;;;11.70;9.68;;;22.40;35.60;;;;;;5049587;28;20135;-50
2023/03/20 12:18:09;;;;;;;13.27;10.23;;;22.30;35.50;;;;;;5065635;28;20355;-52
2023/03/20 12:21:04;;;;;;;11.27;9.52;;;22.30;35.50;;;;;;5058025;28;20021;-51
2023/03/20 12:23:42;;;;;;;13.02;9.88;;;22.30;35.60;;;;;;5042008;28;20112;-52
2023/03/20 12:26:27;;;;;;;12.45;11.00;;;22.30;35.60;;;;;;5040901;28;20060;-50
2023/03/20 12:29:00;;;;;;;12.20;9.90;;;22.30;35.60;;;;;;5048116;28;20040;-52
2023/03/20 12:31:34;;;;;;;12.32;11.02;;;22.30;35.70;;;;;;5054162;28;20452;-52
2023/03/20 12:34:11;;;;;;;14.00;10.68;;;22.30;35.70;;;;;;5056648;28;20452;-50
2023/03/20 12:36:43;;;;;;;11.32;9.63;;;22.30;35.80;;;;;;5054397;28;20040;-53
2023/03/20 12:39:15;;;;;;;10.93;9.32;;;22.30;35.90;;;;;;5056723;28;20318;-51
2023/03/20 12:41:56;;;;;;;11.95;9.50;;;22.30;35.90;;;;;;5066337;28;20052;-51
2023/03/20 12:44:54;;;;;;;11.02;8.55;;;22.30;35.90;;;;;;5051970;28;20520;-51
2023/03/20 12:47:54;;;;;;;11.00;8.93;;;22.30;35.90;;;;;;5054263;28;20082;-52
2023/03/20 12:50:35;;;;;;;11.35;8.93;;;22.30;36.00;;;;;;5054937;28;20040;-52
2023/03/20 12:53:35;;;;;;;11.45;9.00;;;22.30;36.00;;;;;;5054084;28;20514;-56
2023/03/20 12:56:11;;;;;;;13.02;9.32;;;22.30;36.10;;;;;;5053718;28;20127;-53
2023/03/20 12:58:45;;;;;;;11.75;9.23;;;22.30;36.10;;;;;;5052435;28;20116;-50
2023/03/20 13:01:20;;;;;;;;;;;22.30;36.20;;;;;;5054993;28;20044;-54
2023/03/20 13:04:17;;;;;;;12.45;9.38;;;22.30;36.20;;;;;;5043442;28;19916;-54
2023/03/20 13:07:12;;;;;;;12.50;10.10;;;22.30;36.20;;;;;;5036821;28;20104;-51
2023/03/20 13:10:20;;;;;;;11.93;9.38;;;22.30;36.30;;;;;;5049786;28;20037;-51
2023/03/20 13:13:17;;;;;;;11.57;9.27;;;22.30;36.30;;;;;;5056942;28;20086;-50
2023/03/20 13:15:53;;;;;;;12.43;9.85;;;22.30;36.40;;;;;;5033986;28;20045;-51
2023/03/20 13:18:29;;;;;;;12.10;9.65;;;22.30;36.40;;;;;;5035912;28;20445;-50
2023/03/20 13:20:58;;;;;;;11.55;9.80;;;22.30;36.50;;;;;;5053692;28;20037;-55